Time;durP1;ratioP1;P1;durP2;ratioP2;P2;SDS_P1;SDS_P2;PMS_P1;PMS_P2;Temp;Humidity;BMP_temperature;BMP_pressure;BME280_temperature;BME280_humidity;BME280_pressure;Samples;Min_cycle;Max_cycle;Signal;HPM_P1;HPM_P2
2022/09/17 00:01:32;;;;;;;5.97;1.67;;;17.50;99.90;;;;;;5034726;28;20116;-74
2022/09/17 00:04:02;;;;;;;5.18;2.00;;;17.20;99.90;;;;;;5033076;28;20045;-74
2022/09/17 00:06:29;;;;;;;4.85;1.83;;;16.90;99.90;;;;;;5034273;28;20017;-74
2022/09/17 00:08:55;;;;;;;4.35;1.90;;;16.80;99.90;;;;;;5028953;28;20033;-74
2022/09/17 00:11:24;;;;;;;5.88;1.83;;;16.70;99.90;;;;;;5026729;28;20037;-74
2022/09/17 00:13:52;;;;;;;3.40;1.40;;;16.60;99.90;;;;;;5028093;28;20078;-74
2022/09/17 00:16:43;;;;;;;3.38;1.20;;;16.60;99.90;;;;;;5030199;28;20033;-74
2022/09/17 00:19:18;;;;;;;5.18;2.10;;;16.40;99.90;;;;;;5033973;28;20049;-74
2022/09/17 00:21:44;;;;;;;4.93;1.60;;;16.40;99.90;;;;;;5028875;28;20033;-74
2022/09/17 00:24:12;;;;;;;4.38;1.65;;;16.40;99.90;;;;;;5028613;28;20567;-74
2022/09/17 00:26:39;;;;;;;8.48;1.73;;;16.30;99.90;;;;;;5030426;28;20430;-74
2022/09/17 00:29:05;;;;;;;4.35;1.60;;;16.00;99.90;;;;;;5028483;28;20029;-74
2022/09/17 00:31:31;;;;;;;5.68;1.48;;;16.00;99.90;;;;;;5028401;28;20060;-73
2022/09/17 00:33:58;;;;;;;4.50;2.10;;;16.00;99.90;;;;;;5029986;28;20029;-74
2022/09/17 00:36:24;;;;;;;3.33;1.27;;;16.10;99.90;;;;;;5028110;28;20491;-74
2022/09/17 00:38:55;;;;;;;5.60;1.27;;;16.10;99.90;;;;;;5034194;28;20072;-73
2022/09/17 00:41:22;;;;;;;5.30;1.20;;;16.00;99.90;;;;;;5033716;28;20059;-74
2022/09/17 00:43:54;;;;;;;3.05;1.10;;;16.00;99.90;;;;;;5034426;28;20037;-74
2022/09/17 00:46:40;;;;;;;4.30;1.23;;;16.00;99.90;;;;;;5035882;28;20028;-74
2022/09/17 00:49:25;;;;;;;3.53;1.20;;;16.10;99.90;;;;;;5026899;28;20057;-75
2022/09/17 00:52:07;;;;;;;2.40;0.95;;;16.00;99.90;;;;;;5032120;28;20036;-74
2022/09/17 00:54:35;;;;;;;4.53;1.50;;;15.90;99.90;;;;;;5032684;28;20487;-74
2022/09/17 00:57:02;;;;;;;3.08;1.10;;;15.80;99.90;;;;;;5035345;28;20029;-74
2022/09/17 00:59:28;;;;;;;2.38;1.10;;;15.80;99.90;;;;;;5028853;28;20025;-75
2022/09/17 01:01:53;;;;;;;2.42;1.17;;;15.80;99.90;;;;;;5028587;28;20039;-74
2022/09/17 01:04:22;;;;;;;3.00;1.35;;;15.90;99.90;;;;;;5033261;28;20029;-74
2022/09/17 01:07:01;;;;;;;1.73;0.80;;;16.00;99.90;;;;;;5027515;28;20451;-74
2022/09/17 01:09:57;;;;;;;4.25;1.70;;;15.80;99.90;;;;;;5029901;28;20104;-74
2022/09/17 01:12:43;;;;;;;4.78;1.52;;;15.80;99.90;;;;;;5030740;28;20053;-74
2022/09/17 01:15:21;;;;;;;2.50;1.20;;;15.90;99.90;;;;;;5025506;28;20025;-74
2022/09/17 01:18:07;;;;;;;2.80;1.25;;;15.90;99.90;;;;;;5032874;28;20444;-74
2022/09/17 01:20:36;;;;;;;3.92;1.20;;;15.70;99.90;;;;;;5026644;28;20125;-74
2022/09/17 01:23:19;;;;;;;2.55;0.95;;;15.50;99.90;;;;;;5025387;28;20100;-74
2022/09/17 01:26:00;;;;;;;3.63;1.25;;;15.40;99.90;;;;;;5028276;28;20033;-74
2022/09/17 01:28:51;;;;;;;2.80;1.20;;;15.40;99.90;;;;;;5024710;28;20575;-74
2022/09/17 01:31:37;;;;;;;2.60;1.15;;;15.40;99.90;;;;;;5035087;28;20036;-74
2022/09/17 01:34:18;;;;;;;2.28;1.17;;;15.50;99.90;;;;;;5028625;28;20021;-74
2022/09/17 01:36:56;;;;;;;4.03;1.25;;;15.30;99.90;;;;;;5034093;28;20029;-74
2022/09/17 01:39:29;;;;;;;2.42;1.27;;;15.40;99.90;;;;;;5025443;28;20452;-74
2022/09/17 01:42:22;;;;;;;5.78;1.23;;;15.30;99.90;;;;;;5031833;28;20025;-74
2022/09/17 01:44:57;;;;;;;4.97;1.33;;;15.30;99.90;;;;;;5040667;28;20102;-75
2022/09/17 01:47:30;;;;;;;4.60;1.48;;;15.20;99.90;;;;;;5031770;28;20033;-74
2022/09/17 01:50:11;;;;;;;2.88;1.23;;;15.20;99.90;;;;;;5037119;28;20047;-74
2022/09/17 01:52:40;;;;;;;3.15;1.30;;;15.30;99.90;;;;;;5031642;28;20035;-74
2022/09/17 01:55:12;;;;;;;4.72;1.20;;;15.30;99.90;;;;;;5031153;28;20033;-74
2022/09/17 01:57:45;;;;;;;3.30;1.50;;;15.40;99.90;;;;;;5031681;28;20026;-74
2022/09/17 02:00:14;;;;;;;2.47;0.70;;;15.20;99.90;;;;;;5040296;28;20390;-74
2022/09/17 02:02:44;;;;;;;1.98;1.05;;;15.10;99.90;;;;;;5034201;28;20394;-74
2022/09/17 02:05:36;;;;;;;4.55;1.10;;;15.00;99.90;;;;;;5037857;28;20378;-74
2022/09/17 02:08:14;;;;;;;3.83;0.60;;;14.90;99.90;;;;;;5037756;28;20037;-74
2022/09/17 02:11:05;;;;;;;3.90;0.80;;;14.80;99.90;;;;;;5038310;28;20045;-74
2022/09/17 02:13:39;;;;;;;1.85;0.70;;;14.60;99.90;;;;;;5039026;28;20045;-74
2022/09/17 02:16:09;;;;;;;;;;;14.50;99.90;;;;;;5036571;28;20033;-74
2022/09/17 02:19:01;;;;;;;0.75;0.38;;;14.70;99.90;;;;;;5036615;28;19917;-74
2022/09/17 02:21:33;;;;;;;1.30;0.63;;;14.80;99.90;;;;;;5032590;28;20046;-74
2022/09/17 02:24:30;;;;;;;2.53;0.40;;;14.90;99.90;;;;;;5032997;28;20092;-74
2022/09/17 02:27:21;;;;;;;3.25;1.10;;;14.80;99.90;;;;;;5028171;28;20046;-74
2022/09/17 02:29:48;;;;;;;1.08;0.45;;;14.30;99.90;;;;;;5030259;28;20191;-74
2022/09/17 02:32:14;;;;;;;4.68;1.25;;;14.30;99.90;;;;;;5041101;28;20395;-74
2022/09/17 02:34:40;;;;;;;4.00;0.80;;;14.20;99.90;;;;;;5032792;28;20087;-74
2022/09/17 02:37:06;;;;;;;2.50;0.70;;;13.90;99.90;;;;;;5032533;28;20704;-74
2022/09/17 02:39:32;;;;;;;1.58;0.45;;;13.70;99.90;;;;;;5032737;28;20059;-74
2022/09/17 02:42:22;;;;;;;4.95;0.85;;;13.80;99.90;;;;;;5030410;28;20049;-74
2022/09/17 02:44:54;;;;;;;1.65;0.60;;;13.90;99.90;;;;;;5028107;28;20032;-74
2022/09/17 02:47:38;;;;;;;3.25;0.60;;;13.80;99.90;;;;;;5029524;28;20104;-74
2022/09/17 02:50:03;;;;;;;1.88;0.55;;;13.80;99.90;;;;;;5029941;28;20045;-74
2022/09/17 02:52:41;;;;;;;2.55;0.57;;;14.00;99.90;;;;;;5032481;28;20543;-74
2022/09/17 02:55:12;;;;;;;1.13;0.35;;;14.30;99.90;;;;;;5029444;28;20032;-74
2022/09/17 02:57:44;;;;;;;0.70;0.50;;;14.30;99.90;;;;;;5033805;28;20040;-74
2022/09/17 03:00:15;;;;;;;1.30;0.30;;;14.30;99.90;;;;;;5033418;28;20041;-72
2022/09/17 03:03:11;;;;;;;1.58;0.32;;;14.20;99.90;;;;;;5031321;28;20045;-73
2022/09/17 03:05:40;;;;;;;1.00;0.38;;;13.80;99.90;;;;;;5032903;28;20090;-73
2022/09/17 03:08:11;;;;;;;0.60;0.40;;;13.40;99.90;;;;;;5025982;28;20044;-73
2022/09/17 03:10:37;;;;;;;1.02;0.30;;;13.50;99.90;;;;;;5025301;28;20037;-73
2022/09/17 03:13:03;;;;;;;2.25;0.85;;;13.60;99.90;;;;;;5024377;28;20535;-73
2022/09/17 03:15:29;;;;;;;2.22;0.80;;;13.70;99.90;;;;;;5022812;28;20052;-73
2022/09/17 03:17:54;;;;;;;0.68;0.20;;;13.80;99.90;;;;;;5024477;28;20029;-73
2022/09/17 03:20:20;;;;;;;0.65;0.43;;;14.00;99.90;;;;;;5025602;28;20029;-73
2022/09/17 03:22:46;;;;;;;0.82;0.50;;;13.90;99.90;;;;;;5026904;28;20464;-73
2022/09/17 03:25:12;;;;;;;1.40;0.35;;;13.80;99.90;;;;;;5028211;28;20096;-73
2022/09/17 03:27:37;;;;;;;0.73;0.30;;;13.60;99.90;;;;;;5028277;28;20060;-73
2022/09/17 03:30:05;;;;;;;1.08;0.52;;;13.60;99.90;;;;;;5027297;28;20037;-73
2022/09/17 03:32:31;;;;;;;1.92;0.57;;;13.40;99.90;;;;;;5030590;28;20402;-73
2022/09/17 03:34:56;;;;;;;2.33;0.50;;;13.50;99.90;;;;;;5026141;28;20037;-73
2022/09/17 03:37:22;;;;;;;0.57;0.20;;;13.30;99.90;;;;;;5026497;28;20038;-74
2022/09/17 03:39:47;;;;;;;0.30;0.22;;;13.20;99.90;;;;;;5027649;28;20035;-74
2022/09/17 03:42:13;;;;;;;0.93;0.30;;;13.30;99.90;;;;;;5032373;28;20037;-74
2022/09/17 03:44:39;;;;;;;1.65;0.40;;;13.40;99.90;;;;;;5026985;28;20044;-74
2022/09/17 03:47:04;;;;;;;0.45;0.20;;;13.20;99.90;;;;;;5026014;28;20112;-74
2022/09/17 03:49:30;;;;;;;0.43;0.13;;;12.90;99.90;;;;;;5024563;28;20071;-74
2022/09/17 03:51:56;;;;;;;0.68;0.38;;;12.90;99.90;;;;;;5030769;28;20072;-74
2022/09/17 03:54:22;;;;;;;0.90;0.20;;;12.80;99.90;;;;;;5025063;28;20041;-74
2022/09/17 03:56:47;;;;;;;0.52;0.22;;;13.10;99.90;;;;;;5023618;28;20040;-74
2022/09/17 03:59:13;;;;;;;3.90;0.43;;;13.00;99.90;;;;;;5028340;28;20029;-74
2022/09/17 04:01:39;;;;;;;0.90;0.30;;;13.00;99.90;;;;;;5023151;28;20021;-74
2022/09/17 04:04:04;;;;;;;2.80;0.30;;;12.80;99.90;;;;;;5023363;28;20041;-74
2022/09/17 04:06:30;;;;;;;1.10;0.35;;;12.80;99.90;;;;;;5026821;28;20073;-74
2022/09/17 04:08:56;;;;;;;0.50;0.10;;;12.60;99.90;;;;;;5020299;28;20025;-74
2022/09/17 04:11:22;;;;;;;1.90;0.43;;;12.70;99.90;;;;;;5021409;28;20028;-74
2022/09/17 04:13:48;;;;;;;2.30;0.38;;;12.70;99.90;;;;;;5024430;28;20037;-73
2022/09/17 04:16:13;;;;;;;0.80;0.32;;;12.70;99.90;;;;;;5030876;28;20037;-74
2022/09/17 04:18:39;;;;;;;0.35;0.20;;;12.60;99.90;;;;;;5021165;28;20487;-74
2022/09/17 04:21:05;;;;;;;0.15;0.10;;;12.50;99.90;;;;;;5023171;28;20468;-74
2022/09/17 04:23:31;;;;;;;0.85;0.25;;;12.50;99.90;;;;;;5021286;28;20037;-74
2022/09/17 04:25:57;;;;;;;1.02;0.20;;;12.50;99.90;;;;;;5024451;28;20092;-74
2022/09/17 04:28:22;;;;;;;0.45;0.20;;;12.40;99.90;;;;;;5023887;28;20033;-74
2022/09/17 04:30:48;;;;;;;1.90;0.57;;;12.50;99.90;;;;;;5021080;28;20087;-74
2022/09/17 04:33:14;;;;;;;0.73;0.35;;;12.50;99.90;;;;;;5023245;28;20029;-74
2022/09/17 04:35:40;;;;;;;0.85;0.35;;;12.40;99.90;;;;;;5024366;28;20135;-74
2022/09/17 04:38:05;;;;;;;1.05;0.13;;;12.30;99.90;;;;;;5021324;28;20040;-74
2022/09/17 04:40:31;;;;;;;0.55;0.20;;;12.10;99.90;;;;;;5023698;28;20032;-74
2022/09/17 04:42:58;;;;;;;0.65;0.28;;;12.40;99.90;;;;;;5024813;28;20065;-74
2022/09/17 04:45:25;;;;;;;1.27;0.40;;;12.50;99.90;;;;;;5019221;28;20660;-74
2022/09/17 04:47:50;;;;;;;0.82;0.30;;;12.40;99.90;;;;;;5017902;28;20116;-74
2022/09/17 04:50:20;;;;;;;1.15;0.40;;;12.40;99.90;;;;;;5022097;28;20120;-74
2022/09/17 04:52:46;;;;;;;1.42;0.25;;;12.20;99.90;;;;;;5021563;28;20091;-74
2022/09/17 04:55:13;;;;;;;0.22;0.10;;;12.20;99.90;;;;;;5019407;28;20053;-74
2022/09/17 04:57:44;;;;;;;0.77;0.32;;;12.20;99.90;;;;;;5022170;28;20040;-74
2022/09/17 05:00:10;;;;;;;0.28;0.00;;;12.10;99.90;;;;;;5017456;28;20129;-74
2022/09/17 05:02:36;;;;;;;0.20;0.10;;;12.40;99.90;;;;;;5025659;28;20108;-74
2022/09/17 05:05:02;;;;;;;0.00;0.00;;;12.20;99.90;;;;;;5023050;28;20116;-74
2022/09/17 05:07:27;;;;;;;1.83;0.10;;;12.10;99.90;;;;;;5018749;28;20508;-74
2022/09/17 05:09:53;;;;;;;0.05;0.05;;;12.00;99.90;;;;;;5029086;28;20068;-74
2022/09/17 05:12:19;;;;;;;0.13;0.03;;;12.10;99.90;;;;;;5029708;28;20052;-74
2022/09/17 05:14:44;;;;;;;2.10;0.25;;;11.80;99.90;;;;;;5025656;28;20033;-74
2022/09/17 05:17:10;;;;;;;0.70;0.20;;;11.70;99.90;;;;;;5025748;28;20030;-74
2022/09/17 05:19:36;;;;;;;0.10;0.00;;;11.80;99.90;;;;;;5027233;28;20060;-74
2022/09/17 05:22:01;;;;;;;0.30;0.10;;;11.70;99.90;;;;;;5022222;28;20036;-75
2022/09/17 05:24:27;;;;;;;0.32;0.20;;;11.60;99.90;;;;;;5023698;28;20252;-74
2022/09/17 05:26:53;;;;;;;0.95;0.20;;;11.70;99.90;;;;;;5024180;28;20036;-74
2022/09/17 05:29:18;;;;;;;0.55;0.08;;;11.70;99.90;;;;;;5025794;28;20087;-74
2022/09/17 05:31:44;;;;;;;0.20;0.00;;;11.50;99.90;;;;;;5024705;28;20164;-75
2022/09/17 05:34:10;;;;;;;0.93;0.03;;;11.80;99.90;;;;;;5037594;28;20613;-74
2022/09/17 05:36:35;;;;;;;0.22;0.13;;;11.90;99.90;;;;;;5032394;28;20136;-74
2022/09/17 05:39:01;;;;;;;0.40;0.10;;;11.90;99.90;;;;;;5025155;28;20044;-74
2022/09/17 05:41:27;;;;;;;0.35;0.10;;;12.00;99.90;;;;;;5023978;28;20029;-74
2022/09/17 05:43:53;;;;;;;0.47;0.10;;;12.10;99.90;;;;;;5021357;28;20048;-74
2022/09/17 05:46:18;;;;;;;0.90;0.10;;;12.00;99.90;;;;;;5024293;28;20024;-74
2022/09/17 05:48:44;;;;;;;1.05;0.20;;;11.90;99.90;;;;;;5029671;28;20032;-74
2022/09/17 05:51:10;;;;;;;0.20;0.05;;;11.90;99.90;;;;;;5018841;28;20033;-74
2022/09/17 05:53:36;;;;;;;0.52;0.08;;;11.80;99.90;;;;;;5023332;28;20021;-74
2022/09/17 05:56:02;;;;;;;0.73;0.05;;;11.90;99.90;;;;;;5019683;28;20033;-74
2022/09/17 05:58:28;;;;;;;0.10;0.10;;;11.70;99.90;;;;;;5032728;28;20036;-74
2022/09/17 06:00:54;;;;;;;0.43;0.20;;;11.60;99.90;;;;;;5024453;28;20120;-74
2022/09/17 06:03:21;;;;;;;0.52;0.17;;;11.70;99.90;;;;;;5023240;28;20471;-74
2022/09/17 06:05:57;;;;;;;0.45;0.00;;;11.80;99.90;;;;;;5018868;28;20063;-73
2022/09/17 06:08:24;;;;;;;3.08;0.47;;;11.70;99.90;;;;;;5021986;28;20033;-74
2022/09/17 06:10:50;;;;;;;0.43;0.05;;;11.80;99.90;;;;;;5021928;28;20061;-74
2022/09/17 06:13:19;;;;;;;0.00;0.00;;;11.40;99.90;;;;;;5023938;28;20626;-74
2022/09/17 06:15:52;;;;;;;0.75;0.10;;;11.60;99.90;;;;;;5021755;28;20040;-74
2022/09/17 06:18:19;;;;;;;0.20;0.10;;;11.70;99.90;;;;;;5020977;28;20112;-74
2022/09/17 06:20:55;;;;;;;0.45;0.08;;;11.50;99.90;;;;;;5021189;28;21786;-74
2022/09/17 06:23:21;;;;;;;0.10;0.00;;;11.70;99.90;;;;;;5021223;28;20709;-74
2022/09/17 06:25:56;;;;;;;0.55;0.20;;;11.60;99.90;;;;;;5021363;28;20034;-75
2022/09/17 06:28:22;;;;;;;0.22;0.03;;;11.50;99.90;;;;;;5025887;28;20048;-75
2022/09/17 06:30:47;;;;;;;4.20;1.75;;;11.60;99.90;;;;;;5028476;28;20241;-74
2022/09/17 06:33:14;;;;;;;4.35;0.22;;;12.10;99.90;;;;;;5035034;28;20037;-73
2022/09/17 06:35:39;;;;;;;0.70;0.20;;;11.70;99.90;;;;;;5026210;28;20036;-72
2022/09/17 06:38:05;;;;;;;0.47;0.10;;;11.60;99.90;;;;;;5029228;28;20036;-73
2022/09/17 06:40:31;;;;;;;0.80;0.20;;;11.50;99.90;;;;;;5023060;28;20060;-73
2022/09/17 06:43:01;;;;;;;0.90;0.32;;;11.80;99.90;;;;;;5027069;28;20123;-73
2022/09/17 06:45:27;;;;;;;1.23;0.20;;;11.90;99.90;;;;;;5023244;28;20095;-73
2022/09/17 06:47:53;;;;;;;1.88;0.55;;;12.00;99.90;;;;;;5030614;28;20025;-73
2022/09/17 06:50:19;;;;;;;2.05;0.50;;;11.80;99.90;;;;;;5024127;28;20899;-73
2022/09/17 06:52:50;;;;;;;4.47;1.25;;;11.60;99.90;;;;;;5022762;28;20040;-73
2022/09/17 06:55:16;;;;;;;7.50;2.40;;;11.50;99.90;;;;;;5034675;28;20032;-73
2022/09/17 06:57:42;;;;;;;1.08;0.40;;;11.50;99.90;;;;;;5030077;28;20123;-72
2022/09/17 07:00:09;;;;;;;0.30;0.13;;;11.40;99.90;;;;;;5026277;28;20262;-72
2022/09/17 07:02:35;;;;;;;0.80;0.20;;;11.50;99.90;;;;;;5032159;28;20467;-72
2022/09/17 07:05:01;;;;;;;0.55;0.20;;;11.80;99.90;;;;;;5029458;28;20044;-73
2022/09/17 07:07:27;;;;;;;0.80;0.35;;;11.60;99.90;;;;;;5031111;28;20049;-73
2022/09/17 07:09:53;;;;;;;1.13;0.30;;;11.80;99.90;;;;;;5027372;28;20033;-73
2022/09/17 07:12:19;;;;;;;0.63;0.20;;;11.70;99.90;;;;;;5026214;28;20056;-74
2022/09/17 07:14:46;;;;;;;0.10;0.10;;;11.40;99.90;;;;;;5035042;28;20035;-75
2022/09/17 07:17:13;;;;;;;0.52;0.10;;;11.40;99.90;;;;;;5025767;28;20084;-74
2022/09/17 07:19:38;;;;;;;0.60;0.10;;;11.30;99.90;;;;;;5031916;28;20040;-74
2022/09/17 07:22:04;;;;;;;0.63;0.20;;;11.50;99.90;;;;;;5030740;28;20034;-74
2022/09/17 07:24:30;;;;;;;0.75;0.30;;;11.60;99.90;;;;;;5026710;28;20076;-74
2022/09/17 07:26:55;;;;;;;1.15;0.32;;;11.50;99.90;;;;;;5027411;28;20090;-74
2022/09/17 07:29:25;;;;;;;0.80;0.38;;;11.40;99.90;;;;;;5021259;28;20034;-74
2022/09/17 07:31:51;;;;;;;2.42;0.15;;;11.40;99.90;;;;;;5024802;28;20025;-74
2022/09/17 07:34:16;;;;;;;0.80;0.40;;;11.60;99.90;;;;;;5030117;28;20033;-74
2022/09/17 07:36:43;;;;;;;1.33;0.35;;;11.70;99.90;;;;;;5029803;28;20516;-74
2022/09/17 07:39:10;;;;;;;1.02;0.13;;;11.60;99.90;;;;;;5039846;28;20769;-74
2022/09/17 07:41:36;;;;;;;0.38;0.17;;;11.50;99.90;;;;;;5033472;28;20025;-74
2022/09/17 07:44:01;;;;;;;0.35;0.05;;;11.60;99.90;;;;;;5032745;28;20041;-74
2022/09/17 07:46:28;;;;;;;0.40;0.20;;;11.60;99.90;;;;;;5046006;28;20032;-74
2022/09/17 07:48:54;;;;;;;0.88;0.40;;;11.50;99.90;;;;;;5029019;28;20032;-74
2022/09/17 07:51:27;;;;;;;0.35;0.20;;;11.40;99.90;;;;;;5028521;28;20033;-74
2022/09/17 07:53:54;;;;;;;1.08;0.30;;;11.50;99.90;;;;;;5029458;28;20097;-74
2022/09/17 07:56:20;;;;;;;0.35;0.00;;;11.60;99.90;;;;;;5031553;28;20055;-75
2022/09/17 07:58:46;;;;;;;0.45;0.35;;;11.70;99.90;;;;;;5034678;28;20036;-75
2022/09/17 08:01:17;;;;;;;0.30;0.15;;;11.70;99.90;;;;;;5039619;28;20037;-74
2022/09/17 08:03:47;;;;;;;0.47;0.25;;;11.80;99.90;;;;;;5034208;28;20523;-74
2022/09/17 08:06:15;;;;;;;0.10;0.10;;;11.90;99.90;;;;;;5042506;28;20633;-74
2022/09/17 08:08:41;;;;;;;0.52;0.20;;;12.10;99.90;;;;;;5030762;28;20038;-74
2022/09/17 08:11:11;;;;;;;0.85;0.10;;;12.00;99.90;;;;;;5029043;28;20460;-75
2022/09/17 08:13:37;;;;;;;2.17;0.20;;;12.10;99.90;;;;;;5024485;28;20045;-74
2022/09/17 08:16:06;;;;;;;1.60;0.45;;;11.70;99.90;;;;;;5033007;28;20373;-74
2022/09/17 08:18:33;;;;;;;0.47;0.20;;;11.40;99.90;;;;;;5035781;28;20076;-74
2022/09/17 08:21:00;;;;;;;1.35;0.63;;;11.20;99.90;;;;;;5033444;28;20113;-74
2022/09/17 08:23:27;;;;;;;1.83;0.40;;;11.20;99.90;;;;;;5029183;28;20669;-74
2022/09/17 08:25:58;;;;;;;1.20;0.55;;;11.40;99.90;;;;;;5023992;28;20093;-75
2022/09/17 08:28:25;;;;;;;2.03;0.50;;;12.00;99.90;;;;;;5024966;28;20037;-74
2022/09/17 08:30:52;;;;;;;33.97;7.78;;;11.40;99.90;;;;;;5024991;28;20041;-74
2022/09/17 08:33:18;;;;;;;22.38;4.35;;;11.30;99.90;;;;;;5023871;28;20030;-74
2022/09/17 08:35:58;;;;;;;12.50;3.38;;;11.20;99.90;;;;;;5029580;28;20441;-75
2022/09/17 08:38:28;;;;;;;3.92;1.15;;;11.30;99.90;;;;;;5025409;28;20045;-74
2022/09/17 08:41:06;;;;;;;12.15;2.67;;;11.60;99.90;;;;;;5025565;28;20044;-75
2022/09/17 08:43:38;;;;;;;8.05;1.27;;;12.10;99.90;;;;;;5024819;28;20128;-75
2022/09/17 08:46:04;;;;;;;5.57;1.30;;;12.50;99.90;;;;;;5024884;28;20507;-75
2022/09/17 08:48:39;;;;;;;12.00;1.58;;;12.80;99.90;;;;;;5023723;28;20116;-74
2022/09/17 08:51:37;;;;;;;;;;;13.20;99.90;;;;;;5024145;28;20104;-75
2022/09/17 08:54:08;;;;;;;3.33;0.63;;;13.50;99.90;;;;;;5019383;28;20023;-74
2022/09/17 08:56:36;;;;;;;1.35;0.68;;;13.90;99.90;;;;;;5027379;28;20771;-75
2022/09/17 08:59:25;;;;;;;1.30;0.38;;;14.10;99.90;;;;;;5026018;28;20515;-74
2022/09/17 09:02:09;;;;;;;1.58;0.50;;;14.30;99.90;;;;;;5024456;28;20036;-74
2022/09/17 09:04:46;;;;;;;2.28;0.70;;;14.50;99.30;;;;;;5023160;28;20144;-74
2022/09/17 09:07:20;;;;;;;0.95;0.32;;;14.20;98.90;;;;;;5023596;28;20100;-74
2022/09/17 09:09:59;;;;;;;0.85;0.22;;;14.30;99.10;;;;;;5024101;28;20040;-75
2022/09/17 09:12:30;;;;;;;1.10;0.38;;;14.20;99.20;;;;;;5025850;28;20040;-75
2022/09/17 09:15:07;;;;;;;0.90;0.30;;;13.90;99.60;;;;;;5024497;28;20021;-75
2022/09/17 09:17:42;;;;;;;0.40;0.20;;;13.80;99.70;;;;;;5024338;28;20056;-74
2022/09/17 09:20:21;;;;;;;0.70;0.20;;;13.80;99.90;;;;;;5023673;28;20471;-74
2022/09/17 09:22:51;;;;;;;0.82;0.30;;;14.60;99.90;;;;;;5023921;28;20045;-74
2022/09/17 09:25:22;;;;;;;0.93;0.25;;;14.70;99.40;;;;;;5025897;28;20035;-75
2022/09/17 09:28:12;;;;;;;0.35;0.22;;;14.60;99.90;;;;;;5027056;28;20033;-75
2022/09/17 09:31:00;;;;;;;1.02;0.28;;;14.80;99.30;;;;;;5023070;28;20025;-74
2022/09/17 09:33:34;;;;;;;0.60;0.20;;;15.50;99.10;;;;;;5026195;28;20572;-74
2022/09/17 09:36:00;;;;;;;2.35;0.40;;;15.30;99.10;;;;;;5025023;28;20022;-75
2022/09/17 09:38:36;;;;;;;0.88;0.38;;;16.10;98.50;;;;;;5027879;28;20041;-75
2022/09/17 09:41:10;;;;;;;1.30;0.50;;;15.90;98.60;;;;;;5024213;28;20036;-75
2022/09/17 09:43:50;;;;;;;1.25;0.40;;;16.10;98.80;;;;;;5023860;28;20789;-74
2022/09/17 09:46:18;;;;;;;1.85;0.52;;;15.90;99.50;;;;;;5030749;28;20032;-75
2022/09/17 09:49:06;;;;;;;1.13;0.35;;;15.50;99.90;;;;;;5024023;28;20468;-75
2022/09/17 09:51:55;;;;;;;0.70;0.22;;;15.30;99.90;;;;;;5025254;28;20037;-75
2022/09/17 09:54:36;;;;;;;0.57;0.30;;;15.10;99.90;;;;;;5022874;28;20101;-75
2022/09/17 09:57:41;;;;;;;1.30;0.30;;;15.10;99.90;;;;;;5024025;28;20045;-75
2022/09/17 10:00:25;;;;;;;1.80;0.88;;;15.10;99.90;;;;;;5027933;28;20515;-76
2022/09/17 10:03:14;;;;;;;1.13;0.57;;;15.20;99.90;;;;;;5026786;28;20033;-74
2022/09/17 10:05:52;;;;;;;1.92;0.40;;;15.60;99.90;;;;;;5041261;28;20046;-75
2022/09/17 10:08:17;;;;;;;1.15;0.43;;;15.70;99.90;;;;;;5037938;28;20064;-75
2022/09/17 10:10:53;;;;;;;1.55;0.30;;;15.60;99.70;;;;;;5030899;28;20056;-74
2022/09/17 10:13:19;;;;;;;0.52;0.22;;;15.70;99.70;;;;;;5031253;28;20044;-75
2022/09/17 10:15:45;;;;;;;1.10;0.63;;;15.50;99.80;;;;;;5028338;28;20049;-75
2022/09/17 10:18:18;;;;;;;0.85;0.38;;;15.60;99.90;;;;;;5033705;28;20084;-74
2022/09/17 10:20:52;;;;;;;1.58;0.40;;;15.60;98.80;;;;;;5035149;28;20091;-75
2022/09/17 10:23:20;;;;;;;1.02;0.40;;;15.80;98.40;;;;;;5024989;28;20037;-75
2022/09/17 10:25:47;;;;;;;0.98;0.40;;;15.80;98.30;;;;;;5030261;28;20140;-74
2022/09/17 10:28:44;;;;;;;1.05;0.38;;;15.80;98.50;;;;;;5029668;28;20502;-74
2022/09/17 10:31:10;;;;;;;1.33;0.25;;;16.00;98.10;;;;;;5026677;28;20056;-74
2022/09/17 10:33:50;;;;;;;0.93;0.25;;;16.00;96.60;;;;;;5030236;28;20033;-75
2022/09/17 10:36:16;;;;;;;1.13;0.38;;;16.10;97.00;;;;;;5026756;28;20025;-74
2022/09/17 10:38:45;;;;;;;0.35;0.15;;;16.10;96.20;;;;;;5024493;28;20025;-75
2022/09/17 10:41:20;;;;;;;1.17;0.40;;;16.10;95.50;;;;;;5026841;28;20033;-75
2022/09/17 10:43:47;;;;;;;1.23;0.30;;;16.30;96.20;;;;;;5026840;28;20044;-74
2022/09/17 10:46:27;;;;;;;1.45;0.17;;;16.60;96.70;;;;;;5025454;28;21024;-75
2022/09/17 10:49:16;;;;;;;1.15;0.38;;;16.70;95.40;;;;;;5026928;28;20067;-74
2022/09/17 10:51:42;;;;;;;0.65;0.20;;;17.20;97.30;;;;;;5026373;28;20533;-75
2022/09/17 10:54:46;;;;;;;0.80;0.25;;;17.40;97.20;;;;;;5027244;28;20033;-75
2022/09/17 10:57:20;;;;;;;1.23;0.30;;;17.60;96.10;;;;;;5040411;28;20045;-75
2022/09/17 10:59:51;;;;;;;2.00;0.25;;;17.60;94.60;;;;;;5028581;28;20037;-75
2022/09/17 11:02:39;;;;;;;0.65;0.17;;;17.50;95.10;;;;;;5026619;28;20057;-75
2022/09/17 11:05:22;;;;;;;2.75;0.20;;;17.50;94.40;;;;;;5028568;28;20567;-75
2022/09/17 11:08:05;;;;;;;0.10;0.10;;;17.60;94.30;;;;;;5025801;28;20515;-75
2022/09/17 11:11:10;;;;;;;2.17;0.30;;;17.50;92.80;;;;;;5030697;28;20466;-74
2022/09/17 11:13:36;;;;;;;0.60;0.40;;;17.50;93.00;;;;;;5031569;28;20437;-75
2022/09/17 11:16:31;;;;;;;1.13;0.30;;;17.60;94.00;;;;;;5024621;28;20083;-75
2022/09/17 11:19:10;;;;;;;0.60;0.30;;;17.90;93.20;;;;;;5033533;28;20060;-75
2022/09/17 11:21:47;;;;;;;2.00;0.65;;;18.10;92.90;;;;;;5033801;28;20044;-75
2022/09/17 11:24:22;;;;;;;0.63;0.30;;;18.00;91.90;;;;;;5026465;28;20029;-75
2022/09/17 11:27:07;;;;;;;0.70;0.30;;;18.00;92.20;;;;;;5032292;28;20037;-75
2022/09/17 11:29:57;;;;;;;0.65;0.32;;;17.90;91.60;;;;;;5026787;28;20104;-75
2022/09/17 11:32:47;;;;;;;2.05;0.28;;;18.00;91.50;;;;;;5032242;28;20127;-75
2022/09/17 11:35:24;;;;;;;0.50;0.20;;;18.40;93.20;;;;;;5028785;28;20091;-74
2022/09/17 11:38:01;;;;;;;0.20;0.10;;;19.00;93.60;;;;;;5032883;28;20025;-75
2022/09/17 11:40:41;;;;;;;0.98;0.20;;;18.90;91.30;;;;;;5030665;28;20540;-74
2022/09/17 11:43:26;;;;;;;0.50;0.10;;;18.60;91.00;;;;;;5034768;28;20128;-75
2022/09/17 11:46:04;;;;;;;0.40;0.10;;;18.40;88.70;;;;;;5031873;28;20029;-75
2022/09/17 11:48:41;;;;;;;1.23;0.52;;;18.50;89.10;;;;;;5031913;28;20120;-75
2022/09/17 11:51:18;;;;;;;0.75;0.30;;;18.80;91.90;;;;;;5024774;28;20040;-75
2022/09/17 11:54:04;;;;;;;0.47;0.20;;;19.00;92.40;;;;;;5025071;28;20068;-75
2022/09/17 11:56:40;;;;;;;2.05;0.28;;;19.10;90.90;;;;;;5030293;28;20383;-75
2022/09/17 11:59:41;;;;;;;0.38;0.10;;;19.00;91.10;;;;;;5028417;28;20074;-75
2022/09/17 12:02:27;;;;;;;0.70;0.25;;;19.20;91.80;;;;;;5019805;28;20048;-75
2022/09/17 12:05:15;;;;;;;0.52;0.13;;;19.60;90.40;;;;;;5030028;28;20076;-75
2022/09/17 12:07:59;;;;;;;0.93;0.38;;;19.50;90.70;;;;;;5025795;28;20514;-74
2022/09/17 12:10:31;;;;;;;0.60;0.30;;;19.60;90.70;;;;;;5032025;28;20044;-75
2022/09/17 12:13:10;;;;;;;0.20;0.15;;;19.30;89.70;;;;;;5024466;28;20049;-75
2022/09/17 12:15:40;;;;;;;1.00;0.40;;;19.40;87.90;;;;;;5026740;28;20026;-75
2022/09/17 12:18:30;;;;;;;0.73;0.20;;;19.60;88.80;;;;;;5029072;28;20127;-75
2022/09/17 12:20:59;;;;;;;0.55;0.40;;;19.50;85.20;;;;;;5024432;28;20029;-75
2022/09/17 12:23:47;;;;;;;0.20;0.20;;;19.60;89.70;;;;;;5032217;28;20047;-75
2022/09/17 12:26:28;;;;;;;0.65;0.22;;;19.70;86.20;;;;;;5024959;28;20036;-75
2022/09/17 12:29:05;;;;;;;0.80;0.20;;;19.80;86.80;;;;;;5024265;28;20029;-74
2022/09/17 12:32:17;;;;;;;0.40;0.28;;;19.90;89.80;;;;;;5029989;28;20095;-75
2022/09/17 12:35:07;;;;;;;0.05;0.05;;;19.90;88.00;;;;;;5001082;28;20506;-75
2022/09/17 12:37:59;;;;;;;0.28;0.17;;;19.80;84.40;;;;;;5024455;28;20029;-75
2022/09/17 12:40:38;;;;;;;2.00;0.10;;;20.10;87.70;;;;;;5039897;28;20022;-75
2022/09/17 12:43:31;;;;;;;1.00;0.40;;;20.00;83.80;;;;;;5030909;28;20060;-75
2022/09/17 12:45:57;;;;;;;0.28;0.10;;;20.00;87.60;;;;;;5024348;28;20439;-75
2022/09/17 12:48:53;;;;;;;2.30;0.28;;;20.30;84.70;;;;;;5023784;28;20431;-75
2022/09/17 12:51:51;;;;;;;0.40;0.10;;;19.90;82.70;;;;;;5024249;28;20455;-75
2022/09/17 12:54:18;;;;;;;0.60;0.20;;;20.00;83.50;;;;;;5035819;28;20605;-75
2022/09/17 12:57:19;;;;;;;0.70;0.40;;;20.30;84.00;;;;;;5034699;28;20647;-75
2022/09/17 13:00:08;;;;;;;1.08;0.30;;;20.50;83.60;;;;;;5034010;28;20083;-75
2022/09/17 13:03:00;;;;;;;1.63;0.20;;;20.60;83.80;;;;;;5027555;28;20021;-75
2022/09/17 13:05:39;;;;;;;0.77;0.20;;;20.50;79.20;;;;;;5038279;28;20037;-75
2022/09/17 13:08:13;;;;;;;0.47;0.10;;;20.30;82.10;;;;;;5031995;28;20044;-75
2022/09/17 13:11:03;;;;;;;0.50;0.10;;;20.20;77.90;;;;;;5024986;28;20103;-75
2022/09/17 13:13:48;;;;;;;2.28;0.20;;;20.40;79.30;;;;;;5030502;28;20052;-75
2022/09/17 13:16:32;;;;;;;0.52;0.30;;;20.50;80.00;;;;;;5035299;28;20104;-75
2022/09/17 13:19:05;;;;;;;1.05;0.50;;;20.50;79.10;;;;;;5024639;28;20053;-75